Flight Track Log - Related Links

Times and Time Zones

All times are in EDT time to prevent confusion due to time zone crossing. See the ASQ4253 flight status page for this flight to view local times or setup timezone preferences in your user account.

Time Position Orientation Groundspeed Altitude Reporting Facility
EDT Latitude Longitude Course Direction KTS MPH feet Rate Location/Type
Fri 03:07:20 PM 29.9528 -95.3375 97° East 198 228 900  Level Houston Center
Fri 03:08:34 PM 29.9067 -95.2706 128° Southeast 264 304 2,400 1,426 Climbing Houston Center
Fri 03:09:22 PM 29.8817 -95.2272 124° Southeast 251 289 3,800 2,182 Climbing Houston Center
Fri 03:10:00 PM 29.9096 -94.7811 95° East  Level FlightAware Approximate
Fri 03:10:24 PM 29.8336 -95.1358 121° Southeast 276 318 6,400  Level Houston Center
Fri 03:11:00 PM 29.8973 -94.6421 97° East  Level FlightAware Approximate
Fri 03:11:26 PM 29.8350 -95.0419 89° East 289 333 8,400  Level Houston Center
Fri 03:12:00 PM 29.8820 -94.5035 97° East  Level FlightAware Approximate
Fri 03:12:28 PM 29.8386 -94.9456 88° East 296 341 10,400  Level Houston Center
Fri 03:13:30 PM 29.8433 -94.8425 87° East 313 360 11,100 919 Climbing Houston Center
Fri 03:14:32 PM 29.8475 -94.7272 88° East 347 399 12,300 1,210 Climbing Houston Center
Fri 03:15:34 PM 29.8517 -94.6097 88° East 362 417 13,600 1,296 Climbing Houston Center
Fri 03:16:37 PM 29.8575 -94.4642 87° East 374 430 15,000 1,200 Climbing Houston Center
Fri 03:17:39 PM 29.8614 -94.3414 88° East 381 438 16,100 1,113 Climbing Houston Center
Fri 03:18:41 PM 29.8597 -94.2172 91° East 387 445 17,300 1,065 Climbing Houston Center
Fri 03:19:43 PM 29.8550 -94.1011 93° East 385 443 18,300 1,113 Climbing Houston Center
Fri 03:20:45 PM 29.8628 -93.9514 87° East 391 450 19,600 1,113 Climbing Houston Center
Fri 03:21:47 PM 29.8772 -93.8244 82° East 398 458 20,600 1,016 Climbing Houston Center
Fri 03:22:49 PM 29.8903 -93.6967 83° East 403 464 21,700 1,008 Climbing Houston Center
Fri 03:23:52 PM 29.9083 -93.5689 81° East 406 467 22,700 1,008 Climbing Houston Center
Fri 03:24:54 PM 29.9308 -93.4411 78° East 411 473 23,800 1,161 Climbing Houston Center
Fri 03:25:56 PM 29.9589 -93.2878 78° East 412 474 25,100 1,113 Climbing Houston Center
Fri 03:26:58 PM 29.9806 -93.1592 79° East 412 474 26,100 968 Climbing Houston Center
Fri 03:28:00 PM 30.0025 -93.0328 79° East 407 468 27,100 1,016 Climbing Houston Center
Fri 03:29:02 PM 30.0247 -92.9050 79° East 407 468 28,200 1,008 Climbing Houston Center
Fri 03:30:05 PM 30.0464 -92.7775 79° East 409 471 29,200 1,104 Climbing Houston Center
Fri 03:31:07 PM 30.0728 -92.6250 79° East 407 468 30,500 1,161 Climbing Houston Center
Fri 03:32:09 PM 30.0956 -92.4950 79° East 414 476 31,600 1,016 Climbing Houston Center
Fri 03:33:11 PM 30.1169 -92.3658 79° East 414 476 32,600 677 Climbing Houston Center
Fri 03:34:13 PM 30.1394 -92.2322 79° East 422 486 33,000 194 Climbing Houston Center
Fri 03:35:15 PM 30.1633 -92.0919 79° East 443 510 33,000 387 Level Houston Center
Fri 03:36:17 PM 30.1914 -91.9144 80° East 467 537 33,800 1,104 Climbing Houston Center
Fri 03:37:20 PM 30.2153 -91.7719 79° East 461 531 35,300 1,344 Climbing Houston Center
Fri 03:38:22 PM 30.2386 -91.6389 78° East 440 506 36,600 823 Climbing Houston Center
Fri 03:39:24 PM 30.2603 -91.5036 79° East 430 495 37,000 194 Climbing Houston Center
Fri 03:40:26 PM 30.2822 -91.3631 80° East 439 505 37,000  Level Houston Center
Fri 03:41:28 PM 30.3122 -91.1867 79° East 462 532 37,000  Level Houston Center
Fri 03:42:30 PM 30.3350 -91.0364 80° East 472 543 37,000  Level Houston Center
Fri 03:43:32 PM 30.3589 -90.8831 80° East 480 552 37,000  Level Houston Center
Fri 03:44:34 PM 30.3836 -90.7283 79° East 488 562 37,000  Level Houston Center
Fri 03:45:37 PM 30.4069 -90.5758 80° East 484 557 37,000  Level Houston Center
Fri 03:46:39 PM 30.4592 -90.4303 67° East 489 563 37,000  Level Houston Center
Fri 03:47:41 PM 30.5347 -90.2578 63° Northeast 498 573 37,000  Level Houston Center
Fri 03:48:43 PM 30.5986 -90.1119 63° Northeast 503 579 37,000  Level Houston Center
Fri 03:49:45 PM 30.6617 -89.9664 63° Northeast 499 574 37,000  Level Houston Center
Fri 03:50:47 PM 30.7247 -89.8222 63° Northeast 496 571 37,000  Level Houston Center
Fri 03:51:50 PM 30.7864 -89.6775 64° Northeast 496 571 37,000  Level Houston Center
Fri 03:52:52 PM 30.8492 -89.5339 63° Northeast 496 571 37,000  Level Houston Center
Fri 03:53:54 PM 30.9106 -89.3889 64° Northeast 497 572 37,000  Level Houston Center
Fri 03:54:56 PM 30.9856 -89.2150 63° Northeast 499 574 37,000  Level Houston Center
Fri 03:55:58 PM 31.0456 -89.0681 64° Northeast 502 578 37,000  Level Houston Center
Fri 03:57:00 PM 31.1064 -88.9228 64° Northeast 499 574 37,000  Level Houston Center
Fri 03:58:02 PM 31.1667 -88.7803 64° Northeast 490 564 37,000  Level Houston Center
Fri 03:59:05 PM 31.2286 -88.6356 63° Northeast 492 566 37,000  Level Houston Center
Fri 04:00:07 PM 31.2906 -88.4883 64° Northeast 497 572 37,000  Level Houston Center
Fri 04:01:09 PM 31.3544 -88.3419 63° Northeast 498 573 37,000  Level Houston Center
Fri 04:02:12 PM 31.4267 -88.1617 65° Northeast 504 580 37,000  Level Houston Center
Fri 04:03:13 PM 31.4853 -88.0136 65° Northeast 499 574 37,000  Level Houston Center
Fri 04:04:15 PM 31.5397 -87.8647 67° East 495 570 37,000  Level Houston Center
Fri 04:05:17 PM 31.5950 -87.7181 66° East 492 566 37,000  Level Houston Center
Fri 04:06:12 PM 31.6544 -87.5739 64° Northeast 493 567 37,000  Level Atlanta Center
Fri 04:07:12 PM 31.7064 -87.4269 67° East 493 567 37,000  Level Atlanta Center
Fri 04:08:12 PM 31.7497 -87.2967 69° East 487 560 37,000  Level Atlanta Center
Fri 04:09:12 PM 31.8056 -87.1522 66° East 487 560 37,000  Level Atlanta Center
Fri 04:10:12 PM 31.8614 -87.0050 66° East 487 560 37,000  Level Atlanta Center
Fri 04:11:12 PM 31.9169 -86.8600 66° East 487 560 37,000  Level Atlanta Center
Fri 04:12:12 PM 31.9867 -86.7225 59° Northeast 487 560 37,000  Level Atlanta Center
Fri 04:13:12 PM 32.0714 -86.5731 56° Northeast 487 560 37,000  Level Atlanta Center
Fri 04:14:12 PM 32.1325 -86.4328 63° Northeast 482 555 37,000  Level Atlanta Center
Fri 04:15:12 PM 32.1831 -86.2917 67° East 470 541 37,000  Level Atlanta Center
Fri 04:16:12 PM 32.2275 -86.1381 71° East 475 547 37,000  Level Atlanta Center
Fri 04:17:12 PM 32.2636 -85.9842 74° East 475 547 37,000  Level Atlanta Center
Fri 04:18:12 PM 32.3056 -85.8328 72° East 475 547 37,000  Level Atlanta Center
Fri 04:19:12 PM 32.3494 -85.6789 71° East 480 552 37,000  Level Atlanta Center
Fri 04:20:12 PM 32.3950 -85.5344 69° East 480 552 37,000  Level Atlanta Center
Fri 04:21:12 PM 32.4406 -85.3850 70° East 480 552 37,000  Level Atlanta Center
Fri 04:22:12 PM 32.4881 -85.2381 69° East 480 552 37,000  Level Atlanta Center
Fri 04:23:12 PM 32.5353 -85.0908 69° East 480 552 37,000  Level Atlanta Center
Fri 04:24:12 PM 32.5867 -84.9461 67° East 475 547 37,000  Level Atlanta Center
Fri 04:25:12 PM 32.6250 -84.8206 70° East 469 540 37,000 -200 Level Atlanta Center
Fri 04:26:12 PM 32.6717 -84.6706 70° East 463 533 36,600 -450 Descending Atlanta Center
Fri 04:27:12 PM 32.7183 -84.5178 70° East 476 548 36,100 -450 Descending Atlanta Center
Fri 04:28:12 PM 32.7606 -84.3675 71° East 476 548 35,700 -500 Descending Atlanta Center
Fri 04:29:12 PM 32.8069 -84.2069 71° East 481 554 35,100 -500 Descending Atlanta Center
Fri 04:30:12 PM 32.8486 -84.0661 71° East 481 554 34,700 -400 Descending Atlanta Center
Fri 04:31:12 PM 32.8903 -83.9175 71° East 486 559 34,300 -350 Descending Atlanta Center
Fri 04:32:12 PM 32.9339 -83.7667 71° East 486 559 34,000 -150 Descending Atlanta Center
Fri 04:33:12 PM 32.9753 -83.6131 72° East 486 559 34,000  Level Atlanta Center
Fri 04:34:12 PM 33.0164 -83.4642 72° East 486 559 34,000  Level Atlanta Center
Fri 04:35:12 PM 33.0636 -83.2953 72° East 486 559 34,000 -500 Level Atlanta Center
Fri 04:36:12 PM 33.0919 -83.1611 76° East 475 547 33,000 -1,050 Descending Atlanta Center
Fri 04:37:12 PM 33.1219 -83.0069 77° East 470 541 31,900 -1,850 Descending Atlanta Center
Fri 04:38:12 PM 33.1581 -82.8378 76° East 475 547 29,300 -2,500 Descending Atlanta Center
Fri 04:39:12 PM 33.1897 -82.6761 77° East 480 552 26,900 -2,250 Descending Atlanta Center
Fri 04:40:12 PM 33.2236 -82.5364 74° East 485 558 24,800 -1,800 Descending Atlanta Center
Fri 04:41:12 PM 33.2844 -82.3914 63° Northeast 485 558 23,300 -2,133 Descending Atlanta Center
Fri 04:42:58 PM 33.3917 -82.1464 62° Northeast 467 537 18,900 -2,494 Descending Jacksonville Center
Fri 04:43:58 PM 33.4494 -82.0139 62° Northeast 454 522 16,400 -2,400 Descending Jacksonville Center
Fri 04:44:58 PM 33.4986 -81.8964 63° Northeast 425 489 14,100 -2,350 Descending Jacksonville Center
Fri 04:45:58 PM 33.5478 -81.7836 62° Northeast 394 453 11,700 -1,500 Descending Jacksonville Center
Fri 04:46:58 PM 33.5906 -81.6883 62° Northeast 353 406 11,100 -300 Descending Jacksonville Center
Fri 04:47:58 PM 33.6375 -81.5828 62° Northeast 342 394 11,100  Level Jacksonville Center
Fri 04:48:58 PM 33.6864 -81.4722 62° Northeast 354 407 11,100 -200 Level Jacksonville Center
Fri 04:49:58 PM 33.7289 -81.3592 66° East 366 421 10,700 -1,300 Descending Jacksonville Center
Fri 04:50:58 PM 33.7528 -81.2589 74° East 342 394 8,500 -2,550 Descending Jacksonville Center
Fri 04:51:58 PM 33.7578 -81.1639 86° East 302 348 5,600 -2,750 Descending Jacksonville Center
Fri 04:52:58 PM 33.7647 -81.0664 85° East 291 335 3,000 -1,600 Descending Jacksonville Center
Fri 04:53:58 PM 33.7739 -80.9836 82° East 273 314 2,400 -300 Descending Jacksonville Center
Fri 04:54:58 PM 33.8169 -80.9228 50° Northeast 239 275 2,400 -150 Level Jacksonville Center
Fri 04:55:58 PM 33.8731 -80.9214 North 184 212 2,100 -300 Descending Jacksonville Center

Login

Don't have an account? Register now (free) for customized features, flight alerts, and more!